Andover, OH

2:31 AM EDT on May 05, 2015 (GMT -0400)
OHDOT | | Change Station
CLOSE
Current Station
Personal Weather Station
Location: Pierpont, OH
Elevation: 972 ft
Nearby Weather Stations

Elev 972 ft 41.78 °N, 80.57 °W | Updated 28 minutes ago

Fog
Fog
53 °F
Feels Like 53 °F
N
0
Wind Variable Wind from SSW
Gusts 1.0 mph

Today
High -- | Low -- °F
--% Chance of Precip.
Yesterday
High -- | Low -- °F
Precip. -- in
6:14 AM 8:24 PM
Full, 99% visible
Pressure 30.22 in
Visibility 0.5 miles
Clouds
Dew Point 53 °F
Humidity 99%
Rainfall in
Snow Depth Not available.
UV Not available.
Pollen 11.20 out of 12
Air Quality Not available.
Flu Activity Regional
SPECI KHZY 050619Z AUTO 10003KT 1/2SM FG VV003 13/12 A3022 RMK AO2 T01280122 $

More Conditions Fewer Conditions

Pressure 30.22 in
Visibility 0.5 miles
Clouds
Dew Point 53 °F
Humidity 99%
Rainfall in
Snow Depth Not available.
UV Not available.
Pollen 11.20 out of 12
Air Quality Not available.
Flu Activity Regional
SPECI KHZY 050619Z AUTO 10003KT 1/2SM FG VV003 13/12 A3022 RMK AO2 T01280122 $

More Conditions Fewer Conditions

Nepal has a long way to go to dig out and rebuild from a devastating earthquake. We have teamed up with several charities and organizations to make contributing to the relief effort as easy as possible.
How you can help: Portlight Strategies | Red Cross

10-Day Weather Forecast

Almanac

Astronomy

May. 05, 2015 Rise Set
Actual Time
Civil Twilight
Nautical Twilight
Astronomical Twilight
Moon
Length of Visible Light
Length of Day
Tomorrow will be .
, % of the Moon is Illuminated

Today's Extremes

State Highs State Lows

Community

WunderPhotos

Upload Photos

1,818,814 photos uploaded!

WunderBlogs® & News

Nearby

Air Quality

  Air Quality AQ Index Pollutant
Not available.

Snow Depth

Station Depth Elevation

Earthquake Activity

City Distance Mag. Time & Date
Minimum magnitude displayed is 2.5.

Coastal Water Temperatures

Place Temperature

Stations

Nearby Weather Stations

Station Location Temp. Windchill Dew Point Humidity Wind Precip. Elev Updated Type